Time,TemperatureF,DewpointF,PressureIn,WindDirection,WindDirectionDegrees,WindSpeedMPH,WindSpeedGustMPH,Humidity,HourlyPrecipIn,Conditions,Clouds,dailyrainin,SoftwareType,DateUTC
2013-07-02 00:00:00,79.0,51.9,29.68,WSW,238,2.3,2.3,39,0.00,OVC,,0.00,WeatherDisplay:10.37,2013-07-02 07:00:00,
2013-07-02 00:05:00,79.1,52.0,29.68,SSW,197,2.0,5.0,39,0.00,CLR,,0.00,WeatherDisplay:10.37,2013-07-02 07:05:00,
2013-07-02 00:10:00,79.3,52.2,29.68,SSE,150,2.0,6.0,39,0.00,CLR,,0.00,WeatherDisplay:10.37,2013-07-02 07:10:00,
2013-07-02 00:15:00,79.4,51.6,29.68,SSE,157,3.0,5.0,38,0.00,CLR,,0.00,WeatherDisplay:10.37,2013-07-02 07:15:00,
2013-07-02 00:20:00,79.6,51.8,29.68,SSE,148,7.0,8.0,38,0.00,CLR,,0.00,WeatherDisplay:10.37,2013-07-02 07:20:00,
2013-07-02 00:25:00,79.7,51.8,29.68,SE,140,5.0,6.0,38,0.00,CLR,,0.00,WeatherDisplay:10.37,2013-07-02 07:25:00,
2013-07-02 00:30:00,80.5,51.1,29.68,SSE,157,9.0,10.0,36,0.00,CLR,,0.00,WeatherDisplay:10.37,2013-07-02 07:30:00,
2013-07-02 00:35:00,81.2,50.9,29.68,SSE,167,8.0,12.0,35,0.00,CLR,,0.00,WeatherDisplay:10.37,2013-07-02 07:35:00,
2013-07-02 00:40:00,81.1,50.9,29.68,SSE,167,7.0,9.0,35,0.00,CLR,,0.00,WeatherDisplay:10.37,2013-07-02 07:40:00,
2013-07-02 00:45:00,80.9,50.7,29.68,SSE,166,8.0,10.0,35,0.00,CLR,,0.00,WeatherDisplay:10.37,2013-07-02 07:45:00,
2013-07-02 00:50:00,80.7,50.5,29.68,South,173,7.0,8.0,35,0.00,CLR,,0.00,WeatherDisplay:10.37,2013-07-02 07:50:00,
2013-07-02 00:55:00,80.4,50.2,29.68,South,178,3.0,7.0,35,0.00,CLR,,0.00,WeatherDisplay:10.37,2013-07-02 07:55:00,
2013-07-02 01:00:00,80.2,50.1,29.68,SSE,167,5.8,5.8,35,0.00,OVC,,0.00,WeatherDisplay:10.37,2013-07-02 08:00:00,
2013-07-02 01:05:00,80.1,50.7,29.68,SSE,159,5.8,5.8,36,0.00,OVC,,0.00,WeatherDisplay:10.37,2013-07-02 08:05:00,
2013-07-02 01:10:00,79.9,49.8,29.68,South,169,6.0,8.0,35,0.00,CLR,,0.00,WeatherDisplay:10.37,2013-07-02 08:10:00,
2013-07-02 01:15:00,80.1,50.0,29.68,SSE,168,9.2,9.2,35,0.00,OVC,,0.00,WeatherDisplay:10.37,2013-07-02 08:15:00,
2013-07-02 01:20:00,80.2,50.1,29.68,SSE,167,7.0,10.0,35,0.00,CLR,,0.00,WeatherDisplay:10.37,2013-07-02 08:20:00,
2013-07-02 01:25:00,80.0,49.9,29.68,SSE,164,5.0,8.0,35,0.00,CLR,,0.00,WeatherDisplay:10.37,2013-07-02 08:25:00,
2013-07-02 01:30:00,79.3,50.7,29.68,SSE,164,5.0,6.0,37,0.00,CLR,,0.00,WeatherDisplay:10.37,2013-07-02 08:30:00,
2013-07-02 01:35:00,78.5,50.8,29.68,SSE,163,5.0,6.0,38,0.00,CLR,,0.00,WeatherDisplay:10.37,2013-07-02 08:35:00,
2013-07-02 01:40:00,78.4,49.9,29.68,South,172,5.0,6.0,37,0.00,CLR,,0.00,WeatherDisplay:10.37,2013-07-02 08:40:00,
2013-07-02 01:45:00,78.4,49.2,29.69,SSW,202,3.0,4.0,36,0.00,CLR,,0.00,WeatherDisplay:10.37,2013-07-02 08:45:00,
2013-07-02 01:50:00,78.5,50.1,29.69,WSW,251,2.0,4.0,37,0.00,CLR,,0.00,WeatherDisplay:10.37,2013-07-02 08:50:00,
2013-07-02 01:55:00,79.1,49.8,29.69,WSW,250,2.0,3.0,36,0.00,CLR,,0.00,WeatherDisplay:10.37,2013-07-02 08:55:00,
2013-07-02 02:00:00,79.3,50.0,29.69,WSW,244,0.0,2.0,36,0.00,CLR,,0.00,WeatherDisplay:10.37,2013-07-02 09:00:00,
2013-07-02 02:05:00,79.3,50.0,29.69,WSW,245,0.0,3.0,36,0.00,CLR,,0.00,WeatherDisplay:10.37,2013-07-02 09:05:00,
2013-07-02 02:10:00,78.1,49.0,29.70,North,10,5.0,6.0,36,0.00,CLR,,0.00,WeatherDisplay:10.37,2013-07-02 09:10:00,
2013-07-02 02:15:00,77.6,49.9,29.70,NNE,23,2.0,4.0,38,0.00,CLR,,0.00,WeatherDisplay:10.37,2013-07-02 09:15:00,
2013-07-02 02:20:00,77.5,49.1,29.70,NNE,24,2.0,3.0,37,0.00,CLR,,0.00,WeatherDisplay:10.37,2013-07-02 09:20:00,
2013-07-02 02:25:00,77.1,49.5,29.70,NNE,24,3.5,3.5,38,0.00,OVC,,0.00,WeatherDisplay:10.37,2013-07-02 09:25:00,
2013-07-02 02:30:00,77.9,50.2,29.70,NE,44,3.0,5.0,38,0.00,CLR,,0.00,WeatherDisplay:10.37,2013-07-02 09:30:00,
2013-07-02 02:35:00,78.9,50.4,29.70,East,98,5.0,5.0,37,0.00,OVC,,0.00,WeatherDisplay:10.37,2013-07-02 09:35:00,
2013-07-02 02:40:00,78.8,50.3,29.70,East,93,2.0,5.0,37,0.00,CLR,,0.00,WeatherDisplay:10.37,2013-07-02 09:40:00,
2013-07-02 02:45:00,78.7,50.2,29.70,East,98,0.0,0.0,37,0.00,OVC,,0.00,WeatherDisplay:10.37,2013-07-02 09:45:00,
2013-07-02 02:50:00,78.2,49.1,29.70,East,98,0.0,0.0,36,0.00,OVC,,0.00,WeatherDisplay:10.37,2013-07-02 09:50:00,
2013-07-02 02:55:00,77.9,50.2,29.70,East,98,2.3,2.3,38,0.00,OVC,,0.00,WeatherDisplay:10.37,2013-07-02 09:55:00,
2013-07-02 03:00:00,77.6,50.0,29.70,East,98,5.0,5.0,38,0.00,OVC,,0.00,WeatherDisplay:10.37,2013-07-02 10:00:00,
2013-07-02 03:05:00,76.8,50.0,29.69,South,170,8.0,8.0,39,0.00,OVC,,0.00,WeatherDisplay:10.37,2013-07-02 10:05:00,
2013-07-02 03:10:00,77.0,49.4,29.68,South,178,9.2,9.2,38,0.00,OVC,,0.00,WeatherDisplay:10.37,2013-07-02 10:10:00,
2013-07-02 03:16:00,76.8,50.0,29.69,South,187,8.1,8.1,39,0.00,OVC,,0.00,WeatherDisplay:10.37,2013-07-02 10:16:00,
2013-07-02 03:21:00,77.5,50.6,29.69,SW,217,9.2,9.2,39,0.00,OVC,,0.00,WeatherDisplay:10.37,2013-07-02 10:21:00,
2013-07-02 03:26:00,77.3,50.4,29.69,WSW,240,6.0,6.0,39,0.00,OVC,,0.00,WeatherDisplay:10.37,2013-07-02 10:26:00,
2013-07-02 03:32:00,76.5,49.7,29.69,WSW,240,6.0,6.0,39,0.00,OVC,,0.00,WeatherDisplay:10.37,2013-07-02 10:32:00,
2013-07-02 03:37:00,74.9,48.9,29.69,WSW,244,5.0,5.0,40,0.00,OVC,,0.00,WeatherDisplay:10.37,2013-07-02 10:37:00,
2013-07-02 03:42:00,74.1,49.5,29.69,WSW,258,6.0,6.0,42,0.00,OVC,,0.00,WeatherDisplay:10.37,2013-07-02 10:42:00,
2013-07-02 03:47:00,74.3,49.7,29.69,WSW,251,6.0,6.0,42,0.00,OVC,,0.00,WeatherDisplay:10.37,2013-07-02 10:47:00,
2013-07-02 03:52:00,74.7,49.4,29.69,WSW,244,6.0,6.0,41,0.00,OVC,,0.00,WeatherDisplay:10.37,2013-07-02 10:52:00,
2013-07-02 03:57:00,73.8,48.6,29.69,SW,215,4.6,4.6,41,0.00,OVC,,0.00,WeatherDisplay:10.37,2013-07-02 10:57:00,
2013-07-02 04:02:00,72.3,47.9,29.69,SSW,209,6.0,6.0,42,0.00,OVC,,0.00,WeatherDisplay:10.37,2013-07-02 11:02:00,
2013-07-02 04:07:00,72.1,48.4,29.69,SW,214,7.0,7.0,43,0.00,OVC,,0.00,WeatherDisplay:10.37,2013-07-02 11:07:00,
2013-07-02 04:12:00,73.2,49.4,29.70,WSW,239,8.1,8.1,43,0.00,OVC,,0.00,WeatherDisplay:10.37,2013-07-02 11:12:00,
2013-07-02 04:17:00,73.6,48.4,29.69,SW,234,8.1,8.1,41,0.00,OVC,,0.00,WeatherDisplay:10.37,2013-07-02 11:17:00,
2013-07-02 04:23:00,74.4,48.5,29.69,SW,233,6.9,6.9,40,0.00,OVC,,0.00,WeatherDisplay:10.37,2013-07-02 11:23:00,
2013-07-02 04:28:00,73.9,49.4,29.69,SW,236,6.9,6.9,42,0.00,OVC,,0.00,WeatherDisplay:10.37,2013-07-02 11:28:00,
2013-07-02 04:33:00,74.8,49.5,29.69,WSW,242,7.0,7.0,41,0.00,OVC,,0.00,WeatherDisplay:10.37,2013-07-02 11:33:00,
2013-07-02 04:38:00,76.7,50.6,29.70,WSW,246,8.1,8.1,40,0.00,OVC,,0.00,WeatherDisplay:10.37,2013-07-02 11:38:00,
2013-07-02 04:44:00,78.0,51.0,29.70,WSW,249,9.2,9.2,39,0.00,OVC,,0.00,WeatherDisplay:10.37,2013-07-02 11:44:00,
2013-07-02 04:49:00,78.5,50.8,29.69,WSW,249,8.1,8.1,38,0.00,OVC,,0.00,WeatherDisplay:10.37,2013-07-02 11:49:00,
2013-07-02 04:54:00,78.5,51.5,29.70,WSW,240,11.5,11.5,39,0.00,OVC,,0.00,WeatherDisplay:10.37,2013-07-02 11:54:00,
2013-07-02 04:59:00,79.8,51.2,29.70,WSW,244,7.0,7.0,37,0.00,OVC,,0.00,WeatherDisplay:10.37,2013-07-02 11:59:00,
2013-07-02 05:04:00,78.4,50.0,29.70,South,179,7.0,7.0,37,0.00,OVC,,0.00,WeatherDisplay:10.37,2013-07-02 12:04:00,
2013-07-02 05:09:00,75.4,49.4,29.70,SSE,165,5.8,5.8,40,0.00,OVC,,0.00,WeatherDisplay:10.37,2013-07-02 12:09:00,
2013-07-02 05:14:00,73.1,49.9,29.70,South,186,8.1,8.1,44,0.00,OVC,,0.00,WeatherDisplay:10.37,2013-07-02 12:14:00,
2013-07-02 05:20:00,74.0,49.4,29.70,SSE,153,8.1,8.1,42,0.00,OVC,,0.00,WeatherDisplay:10.37,2013-07-02 12:20:00,
2013-07-02 05:25:00,74.5,49.9,29.70,South,178,11.5,11.5,42,0.00,OVC,,0.00,WeatherDisplay:10.37,2013-07-02 12:25:00,
2013-07-02 05:30:00,74.8,49.5,29.70,South,174,9.2,9.2,41,0.00,OVC,,0.00,WeatherDisplay:10.37,2013-07-02 12:30:00,
2013-07-02 05:35:00,74.0,49.4,29.70,SSE,157,8.1,8.1,42,0.00,OVC,,0.00,WeatherDisplay:10.37,2013-07-02 12:35:00,
2013-07-02 05:40:00,73.0,49.8,29.70,South,181,12.0,12.0,44,0.00,OVC,,0.00,WeatherDisplay:10.37,2013-07-02 12:40:00,
2013-07-02 05:45:00,73.8,50.5,29.70,South,180,12.7,12.7,44,0.00,OVC,,0.00,WeatherDisplay:10.37,2013-07-02 12:45:00,
2013-07-02 05:50:00,74.7,50.7,29.70,South,186,9.2,9.2,43,0.00,OVC,,0.00,WeatherDisplay:10.37,2013-07-02 12:50:00,
2013-07-02 05:55:00,74.8,50.8,29.70,South,180,8.1,8.1,43,0.00,OVC,,0.00,WeatherDisplay:10.37,2013-07-02 12:55:00,
2013-07-02 06:00:00,74.4,50.4,29.70,South,175,8.1,8.1,43,0.00,CLR,,0.00,WeatherDisplay:10.37,2013-07-02 13:00:00,
2013-07-02 06:06:00,74.3,51.0,29.70,South,182,8.1,8.1,44,0.00,OVC,,0.00,WeatherDisplay:10.37,2013-07-02 13:06:00,
2013-07-02 06:11:00,74.7,50.7,29.70,South,185,8.1,8.1,43,0.00,OVC,,0.00,WeatherDisplay:10.37,2013-07-02 13:11:00,
2013-07-02 06:16:00,74.3,50.4,29.71,SSW,203,5.0,5.0,43,0.00,OVC,,0.00,WeatherDisplay:10.37,2013-07-02 13:16:00,
2013-07-02 06:21:00,74.3,50.4,29.71,WSW,245,3.5,3.5,43,0.00,OVC,,0.00,WeatherDisplay:10.37,2013-07-02 13:21:00,
2013-07-02 06:26:00,73.7,50.4,29.71,West,268,3.5,3.5,44,0.00,OVC,,0.00,WeatherDisplay:10.37,2013-07-02 13:26:00,
2013-07-02 06:31:00,74.1,50.8,29.71,West,268,3.5,3.5,44,0.00,OVC,,0.00,WeatherDisplay:10.37,2013-07-02 13:31:00,
2013-07-02 06:37:00,74.5,50.5,29.71,SW,225,0.0,0.0,43,0.00,OVC,,0.00,WeatherDisplay:10.37,2013-07-02 13:37:00,
2013-07-02 06:42:00,74.6,50.6,29.72,SW,225,0.0,0.0,43,0.00,OVC,,0.00,WeatherDisplay:10.37,2013-07-02 13:42:00,
2013-07-02 06:47:00,74.9,50.9,29.72,SW,225,1.0,1.0,43,0.00,OVC,,0.00,WeatherDisplay:10.37,2013-07-02 13:47:00,
2013-07-02 06:52:00,75.8,51.1,29.72,South,172,3.5,3.5,42,0.00,OVC,,0.00,WeatherDisplay:10.37,2013-07-02 13:52:00,
2013-07-02 06:57:00,77.2,51.0,29.72,South,172,4.0,4.0,40,0.00,OVC,,0.00,WeatherDisplay:10.37,2013-07-02 13:57:00,
2013-07-02 07:03:00,78.9,50.4,29.73,SW,217,7.0,7.0,37,0.00,OVC,,0.00,WeatherDisplay:10.37,2013-07-02 14:03:00,
2013-07-02 07:08:00,79.4,50.9,29.73,SW,215,5.8,5.8,37,0.00,OVC,,0.00,WeatherDisplay:10.37,2013-07-02 14:08:00,
2013-07-02 07:13:00,79.3,50.0,29.73,SW,216,4.6,4.6,36,0.00,OVC,,0.00,WeatherDisplay:10.37,2013-07-02 14:13:00,
2013-07-02 07:18:00,79.3,50.8,29.74,WSW,250,4.0,4.0,37,0.00,OVC,,0.00,WeatherDisplay:10.37,2013-07-02 14:18:00,
2013-07-02 07:23:00,79.3,50.8,29.74,WSW,249,4.0,4.0,37,0.00,OVC,,0.00,WeatherDisplay:10.37,2013-07-02 14:23:00,
2013-07-02 07:28:00,80.3,50.9,29.74,SW,224,4.6,4.6,36,0.00,OVC,,0.00,WeatherDisplay:10.37,2013-07-02 14:28:00,
2013-07-02 07:33:00,81.4,50.3,29.74,SSW,195,7.0,7.0,34,0.00,OVC,,0.00,WeatherDisplay:10.37,2013-07-02 14:33:00,
2013-07-02 07:38:00,82.5,50.5,29.74,SSW,192,6.0,6.0,33,0.00,OVC,,0.00,WeatherDisplay:10.37,2013-07-02 14:38:00,
2013-07-02 07:44:00,83.1,50.2,29.74,SSW,195,6.9,6.9,32,0.00,OVC,,0.00,WeatherDisplay:10.37,2013-07-02 14:44:00,
2013-07-02 07:49:00,83.7,50.7,29.74,South,191,6.9,6.9,32,0.00,OVC,,0.00,WeatherDisplay:10.37,2013-07-02 14:49:00,
2013-07-02 07:54:00,83.9,50.0,29.74,South,182,6.9,6.9,31,0.00,OVC,,0.00,WeatherDisplay:10.37,2013-07-02 14:54:00,
2013-07-02 07:59:00,84.3,50.4,29.74,South,186,7.0,7.0,31,0.00,OVC,,0.00,WeatherDisplay:10.37,2013-07-02 14:59:00,
2013-07-02 08:04:00,84.7,50.7,29.75,SSE,163,6.9,6.9,31,0.00,CLR,,0.00,WeatherDisplay:10.37,2013-07-02 15:04:00,
2013-07-02 08:09:00,85.0,50.1,29.75,South,183,8.1,8.1,30,0.00,CLR,,0.00,WeatherDisplay:10.37,2013-07-02 15:09:00,
2013-07-02 08:15:00,85.5,50.5,29.75,SSE,163,5.8,5.8,30,0.00,CLR,,0.00,WeatherDisplay:10.37,2013-07-02 15:15:00,
2013-07-02 08:20:00,85.8,49.9,29.75,South,174,6.9,6.9,29,0.00,CLR,,0.00,WeatherDisplay:10.37,2013-07-02 15:20:00,
2013-07-02 08:25:00,86.4,49.5,29.75,South,188,7.0,8.0,28,0.00,CLR,,0.00,WeatherDisplay:10.37,2013-07-02 15:25:00,
2013-07-02 08:30:00,87.9,49.7,29.75,South,188,9.0,12.0,27,0.00,CLR,,0.00,WeatherDisplay:10.37,2013-07-02 15:30:00,
2013-07-02 08:35:00,89.3,48.9,29.75,South,172,11.5,11.5,25,0.00,CLR,,0.00,WeatherDisplay:10.37,2013-07-02 15:35:00,
2013-07-02 08:40:00,90.1,48.5,29.75,South,183,10.0,13.0,24,0.00,CLR,,0.00,WeatherDisplay:10.37,2013-07-02 15:40:00,
2013-07-02 08:45:00,90.5,48.8,29.75,South,182,11.5,11.5,24,0.00,CLR,,0.00,WeatherDisplay:10.37,2013-07-02 15:45:00,
2013-07-02 08:50:00,90.7,50.0,29.75,South,191,8.0,12.0,25,0.00,CLR,,0.00,WeatherDisplay:10.37,2013-07-02 15:50:00,
2013-07-02 08:55:00,91.0,49.2,29.75,South,183,9.0,13.0,24,0.00,CLR,,0.00,WeatherDisplay:10.37,2013-07-02 15:55:00,
2013-07-02 09:00:00,90.9,49.1,29.75,South,182,9.0,12.0,24,0.00,CLR,,0.00,WeatherDisplay:10.37,2013-07-02 16:00:00,
2013-07-02 09:05:00,91.1,47.0,29.75,South,186,11.5,11.5,22,0.00,CLR,,0.00,WeatherDisplay:10.37,2013-07-02 16:05:00,
2013-07-02 09:10:00,91.3,49.4,29.75,South,185,7.0,12.0,24,0.00,CLR,,0.00,WeatherDisplay:10.37,2013-07-02 16:10:00,
2013-07-02 09:15:00,91.4,49.5,29.75,South,185,8.0,12.0,24,0.00,CLR,,0.00,WeatherDisplay:10.37,2013-07-02 16:15:00,
2013-07-02 09:20:00,91.7,50.9,29.75,South,178,10.4,10.4,25,0.00,CLR,,0.00,WeatherDisplay:10.37,2013-07-02 16:20:00,
2013-07-02 09:25:00,91.7,50.9,29.75,SSW,193,8.0,10.0,25,0.00,CLR,,0.00,WeatherDisplay:10.37,2013-07-02 16:25:00,
2013-07-02 09:30:00,92.0,51.1,29.75,South,187,10.0,12.0,25,0.00,CLR,,0.00,WeatherDisplay:10.37,2013-07-02 16:30:00,
2013-07-02 09:35:00,92.4,51.4,29.75,South,182,10.0,14.0,25,0.00,CLR,,0.00,WeatherDisplay:10.37,2013-07-02 16:35:00,
2013-07-02 09:40:00,92.9,50.8,29.76,South,181,10.0,12.0,24,0.00,CLR,,0.00,WeatherDisplay:10.37,2013-07-02 16:40:00,
2013-07-02 09:45:00,93.6,51.3,29.75,South,178,10.0,12.0,24,0.00,CLR,,0.00,WeatherDisplay:10.37,2013-07-02 16:45:00,
2013-07-02 09:50:00,93.9,50.5,29.75,SSE,165,13.8,13.8,23,0.00,CLR,,0.00,WeatherDisplay:10.37,2013-07-02 16:50:00,
2013-07-02 09:55:00,94.3,49.6,29.76,South,177,8.0,15.0,22,0.00,CLR,,0.00,WeatherDisplay:10.37,2013-07-02 16:55:00,
2013-07-02 10:00:00,95.3,46.5,29.76,SSE,167,12.0,16.0,19,0.00,CLR,,0.00,WeatherDisplay:10.37,2013-07-02 17:00:00,
2013-07-02 10:05:00,95.9,47.0,29.75,SSE,156,15.0,15.0,19,0.00,CLR,,0.00,WeatherDisplay:10.37,2013-07-02 17:05:00,
2013-07-02 10:10:00,95.8,46.9,29.75,SSE,164,17.3,17.3,19,0.00,CLR,,0.00,WeatherDisplay:10.37,2013-07-02 17:10:00,
2013-07-02 10:15:00,96.2,45.8,29.75,SSE,155,14.0,14.0,18,0.00,CLR,,0.00,WeatherDisplay:10.37,2013-07-02 17:15:00,
2013-07-02 10:21:00,96.9,46.4,29.75,South,174,19.6,19.6,18,0.00,CLR,,0.00,WeatherDisplay:10.37,2013-07-02 17:21:00,
2013-07-02 10:26:00,96.2,44.3,29.75,SE,146,13.8,13.8,17,0.00,CLR,,0.00,WeatherDisplay:10.37,2013-07-02 17:26:00,
2013-07-02 10:31:00,96.6,44.6,29.75,SSE,165,11.5,11.5,17,0.00,CLR,,0.00,WeatherDisplay:10.37,2013-07-02 17:31:00,
2013-07-02 10:37:00,96.9,44.9,29.75,SSE,156,12.7,12.7,17,0.00,CLR,,0.00,WeatherDisplay:10.37,2013-07-02 17:37:00,
2013-07-02 10:42:00,97.2,45.1,29.75,SE,138,15.0,15.0,17,0.00,CLR,,0.00,WeatherDisplay:10.37,2013-07-02 17:42:00,
2013-07-02 10:47:00,97.3,45.2,29.75,South,176,13.8,13.8,17,0.00,CLR,,0.00,WeatherDisplay:10.37,2013-07-02 17:47:00,
2013-07-02 10:52:00,97.4,46.8,29.75,SSW,194,4.6,4.6,18,0.00,CLR,,0.00,WeatherDisplay:10.37,2013-07-02 17:52:00,
2013-07-02 10:57:00,98.0,45.8,29.74,NE,56,3.5,3.5,17,0.00,CLR,,0.00,WeatherDisplay:10.37,2013-07-02 17:57:00,
2013-07-02 11:03:00,98.1,45.8,29.75,East,85,10.4,10.4,17,0.00,CLR,,0.00,WeatherDisplay:10.37,2013-07-02 18:03:00,
2013-07-02 11:08:00,98.3,46.0,29.75,East,90,11.5,11.5,17,0.00,CLR,,0.00,WeatherDisplay:10.37,2013-07-02 18:08:00,
2013-07-02 11:13:00,98.9,46.5,29.75,ENE,78,16.1,16.1,17,0.00,CLR,,0.00,WeatherDisplay:10.37,2013-07-02 18:13:00,
2013-07-02 11:18:00,99.1,46.6,29.75,NE,53,17.3,17.3,17,0.00,CLR,,0.00,WeatherDisplay:10.37,2013-07-02 18:18:00,
2013-07-02 11:23:00,99.8,45.6,29.75,SE,130,15.0,15.0,16,0.00,CLR,,0.00,WeatherDisplay:10.37,2013-07-02 18:23:00,
2013-07-02 11:28:00,99.8,45.6,29.75,SSE,150,13.8,13.8,16,0.00,CLR,,0.00,WeatherDisplay:10.37,2013-07-02 18:28:00,
2013-07-02 11:33:00,99.4,45.3,29.75,East,94,9.0,9.0,16,0.00,CLR,,0.00,WeatherDisplay:10.37,2013-07-02 18:33:00,
2013-07-02 11:38:00,100.2,45.9,29.75,SE,141,12.7,12.7,16,0.00,CLR,,0.00,WeatherDisplay:10.37,2013-07-02 18:38:00,
2013-07-02 11:43:00,100.0,47.4,29.75,SSW,192,12.7,12.7,17,0.00,CLR,,0.00,WeatherDisplay:10.37,2013-07-02 18:43:00,
2013-07-02 11:48:00,100.7,46.3,29.75,NE,37,8.1,8.1,16,0.00,CLR,,0.00,WeatherDisplay:10.37,2013-07-02 18:48:00,
2013-07-02 11:53:00,101.7,47.1,29.75,NNE,13,3.5,3.5,16,0.00,CLR,,0.00,WeatherDisplay:10.37,2013-07-02 18:53:00,
2013-07-02 11:58:00,101.6,45.3,29.74,SSE,153,17.0,17.0,15,0.00,CLR,,0.00,WeatherDisplay:10.37,2013-07-02 18:58:00,
2013-07-02 12:03:00,101.1,44.9,29.74,ENE,77,17.3,17.3,15,0.00,CLR,,0.00,WeatherDisplay:10.37,2013-07-02 19:03:00,
2013-07-02 12:09:00,100.3,46.0,29.74,ESE,119,11.5,11.5,16,0.00,CLR,,0.00,WeatherDisplay:10.37,2013-07-02 19:09:00,
2013-07-02 12:14:00,101.2,45.0,29.74,SE,140,23.0,23.0,15,0.00,CLR,,0.00,WeatherDisplay:10.37,2013-07-02 19:14:00,
2013-07-02 12:19:00,101.3,45.1,29.74,SSE,157,18.0,18.0,15,0.00,CLR,,0.00,WeatherDisplay:10.37,2013-07-02 19:19:00,
2013-07-02 12:24:00,101.5,43.4,29.74,SE,146,24.2,24.2,14,0.00,CLR,,0.00,WeatherDisplay:10.37,2013-07-02 19:24:00,
2013-07-02 12:29:00,101.3,45.1,29.74,SSE,168,20.7,20.7,15,0.00,CLR,,0.00,WeatherDisplay:10.37,2013-07-02 19:29:00,
2013-07-02 12:34:00,100.9,44.8,29.74,SSE,150,19.6,19.6,15,0.00,CLR,,0.00,WeatherDisplay:10.37,2013-07-02 19:34:00,
2013-07-02 12:39:00,100.8,44.7,29.74,SE,128,20.7,20.7,15,0.00,CLR,,0.00,WeatherDisplay:10.37,2013-07-02 19:39:00,
2013-07-02 12:45:00,101.2,45.0,29.74,South,173,19.6,19.6,15,0.00,CLR,,0.00,WeatherDisplay:10.37,2013-07-02 19:45:00,
2013-07-02 12:50:00,101.6,45.3,29.74,SSE,152,10.0,18.0,15,0.00,CLR,,0.00,WeatherDisplay:10.37,2013-07-02 19:50:00,
2013-07-02 12:55:00,102.1,45.7,29.74,SSE,156,13.0,20.0,15,0.00,CLR,,0.00,WeatherDisplay:10.37,2013-07-02 19:55:00,
2013-07-02 13:00:00,102.3,44.1,29.74,SSE,153,19.6,19.6,14,0.00,CLR,,0.00,WeatherDisplay:10.37,2013-07-02 20:00:00,
2013-07-02 13:05:00,102.5,46.0,29.74,South,178,27.6,27.6,15,0.00,CLR,,0.00,WeatherDisplay:10.37,2013-07-02 20:05:00,
2013-07-02 13:10:00,102.1,43.9,29.74,South,184,23.0,23.0,14,0.00,CLR,,0.00,WeatherDisplay:10.37,2013-07-02 20:10:00,
2013-07-02 13:15:00,101.7,45.4,29.73,SSE,162,17.0,25.0,15,0.00,CLR,,0.00,WeatherDisplay:10.37,2013-07-02 20:15:00,
2013-07-02 13:20:00,102.3,44.1,29.73,SSE,157,21.9,21.9,14,0.00,CLR,,0.00,WeatherDisplay:10.37,2013-07-02 20:20:00,
2013-07-02 13:25:00,102.4,44.2,29.73,SSE,159,21.0,26.0,14,0.00,CLR,,0.00,WeatherDisplay:10.37,2013-07-02 20:25:00,
2013-07-02 13:30:00,102.4,45.9,29.73,SSE,152,17.0,25.0,15,0.00,CLR,,0.00,WeatherDisplay:10.37,2013-07-02 20:30:00,
2013-07-02 13:35:00,102.1,45.7,29.73,SSE,159,17.0,28.0,15,0.00,CLR,,0.00,WeatherDisplay:10.37,2013-07-02 20:35:00,
2013-07-02 13:40:00,102.1,45.7,29.73,SSE,155,20.0,25.0,15,0.00,CLR,,0.00,WeatherDisplay:10.37,2013-07-02 20:40:00,
2013-07-02 13:45:00,102.1,45.7,29.73,SSE,152,16.0,24.0,15,0.00,CLR,,0.00,WeatherDisplay:10.37,2013-07-02 20:45:00,
2013-07-02 13:50:00,102.6,47.8,29.72,SSE,161,22.0,27.0,16,0.00,CLR,,0.00,WeatherDisplay:10.37,2013-07-02 20:50:00,
2013-07-02 13:55:00,102.6,47.8,29.72,SE,140,25.3,25.3,16,0.00,CLR,,0.00,WeatherDisplay:10.37,2013-07-02 20:55:00,
2013-07-02 14:00:00,101.8,47.2,29.72,SSE,157,20.0,31.0,16,0.00,CLR,,0.00,WeatherDisplay:10.37,2013-07-02 21:00:00,
2013-07-02 14:05:00,101.9,47.3,29.72,South,169,24.0,35.0,16,0.00,CLR,,0.00,WeatherDisplay:10.37,2013-07-02 21:05:00,
2013-07-02 14:10:00,101.5,47.0,29.72,SE,144,29.9,29.9,16,0.00,CLR,,0.00,WeatherDisplay:10.37,2013-07-02 21:10:00,
2013-07-02 14:15:00,101.7,48.7,29.72,SSE,160,22.0,29.0,17,0.00,CLR,,0.00,WeatherDisplay:10.37,2013-07-02 21:15:00,
2013-07-02 14:20:00,101.3,49.9,29.72,SSE,157,25.0,32.0,18,0.00,CLR,,0.00,WeatherDisplay:10.37,2013-07-02 21:20:00,
2013-07-02 14:25:00,101.3,49.9,29.71,South,180,27.6,27.6,18,0.00,CLR,,0.00,WeatherDisplay:10.37,2013-07-02 21:25:00,
2013-07-02 14:30:00,100.8,49.5,29.71,SE,143,29.9,29.9,18,0.00,CLR,,0.00,WeatherDisplay:10.37,2013-07-02 21:30:00,
2013-07-02 14:36:00,100.2,50.5,29.71,SSE,149,35.0,35.0,19,0.00,CLR,,0.00,WeatherDisplay:10.37,2013-07-02 21:36:00,
2013-07-02 14:41:00,98.8,50.8,29.71,SSE,148,34.5,34.5,20,0.00,CLR,,0.00,WeatherDisplay:10.37,2013-07-02 21:41:00,
2013-07-02 14:46:00,98.5,51.8,29.70,South,188,32.2,32.2,21,0.00,CLR,,0.00,WeatherDisplay:10.37,2013-07-02 21:46:00,
2013-07-02 14:51:00,99.8,54.2,29.70,South,178,34.5,34.5,22,0.00,CLR,,0.00,WeatherDisplay:10.37,2013-07-02 21:51:00,
2013-07-02 14:56:00,100.4,52.1,29.70,SSE,147,32.2,32.2,20,0.00,CLR,,0.00,WeatherDisplay:10.37,2013-07-02 21:56:00,
2013-07-02 15:01:00,99.9,51.7,29.70,SSE,148,36.8,36.8,20,0.00,CLR,,0.00,WeatherDisplay:10.37,2013-07-02 22:01:00,
2013-07-02 15:06:00,99.9,53.0,29.70,SE,146,36.8,36.8,21,0.00,OVC,,0.00,WeatherDisplay:10.37,2013-07-02 22:06:00,
2013-07-02 15:11:00,99.2,53.7,29.70,SSE,156,36.8,36.8,22,0.00,OVC,,0.00,WeatherDisplay:10.37,2013-07-02 22:11:00,
2013-07-02 15:16:00,98.8,52.1,29.70,South,169,38.0,38.0,21,0.00,OVC,,0.00,WeatherDisplay:10.37,2013-07-02 22:16:00,
2013-07-02 15:22:00,98.0,52.7,29.70,SSE,157,39.0,39.0,22,0.00,OVC,,0.00,WeatherDisplay:10.37,2013-07-02 22:22:00,
2013-07-02 15:27:00,98.5,51.8,29.70,South,174,38.0,38.0,21,0.00,OVC,,0.00,WeatherDisplay:10.37,2013-07-02 22:27:00,
2013-07-02 15:32:00,98.4,53.0,29.70,SSE,166,33.4,33.4,22,0.00,OVC,,0.00,WeatherDisplay:10.37,2013-07-02 22:32:00,
2013-07-02 15:37:00,99.1,52.3,29.70,South,173,32.2,32.2,21,0.00,OVC,,0.00,WeatherDisplay:10.37,2013-07-02 22:37:00,
2013-07-02 15:42:00,100.2,53.2,29.69,SSE,148,27.6,27.6,21,0.00,OVC,,0.00,WeatherDisplay:10.37,2013-07-02 22:42:00,
2013-07-02 15:47:00,99.6,50.0,29.69,South,169,34.5,34.5,19,0.00,OVC,,0.00,WeatherDisplay:10.37,2013-07-02 22:47:00,
2013-07-02 15:52:00,99.5,51.3,29.69,South,171,29.9,29.9,20,0.00,OVC,,0.00,WeatherDisplay:10.37,2013-07-02 22:52:00,
2013-07-02 15:58:00,98.3,50.3,29.69,South,173,32.2,32.2,20,0.00,OVC,,0.00,WeatherDisplay:10.37,2013-07-02 22:58:00,
2013-07-02 16:03:00,97.7,49.9,29.69,SSE,153,33.4,33.4,20,0.00,OVC,,0.00,WeatherDisplay:10.37,2013-07-02 23:03:00,
2013-07-02 16:08:00,98.9,49.5,29.69,SSE,159,36.8,36.8,19,0.00,OVC,,0.00,WeatherDisplay:10.37,2013-07-02 23:08:00,
2013-07-02 16:13:00,98.3,50.3,29.69,South,178,33.4,33.4,20,0.00,OVC,,0.00,WeatherDisplay:10.37,2013-07-02 23:13:00,
2013-07-02 16:18:00,99.4,48.4,29.68,SE,141,29.9,29.9,18,0.00,OVC,,0.00,WeatherDisplay:10.37,2013-07-02 23:18:00,
2013-07-02 16:24:00,99.5,49.9,29.67,SSE,157,39.1,39.1,19,0.00,OVC,,0.00,WeatherDisplay:10.37,2013-07-02 23:24:00,
2013-07-02 16:29:00,99.5,49.9,29.67,South,181,33.4,33.4,19,0.00,OVC,,0.00,WeatherDisplay:10.37,2013-07-02 23:29:00,
2013-07-02 16:30:00,99.7,50.1,29.67,South,188,30.0,30.0,19,0.00,OVC,,0.00,WeatherDisplay:10.37,2013-07-02 23:30:00,
2013-07-02 16:35:00,100.0,48.9,29.67,South,183,38.0,38.0,18,0.00,OVC,,0.00,WeatherDisplay:10.37,2013-07-02 23:35:00,
2013-07-02 16:40:00,99.6,51.4,29.67,SSE,167,34.5,34.5,20,0.00,OVC,,0.00,WeatherDisplay:10.37,2013-07-02 23:40:00,
2013-07-02 16:45:00,99.4,49.9,29.67,SSE,162,36.0,36.0,19,0.00,OVC,,0.00,WeatherDisplay:10.37,2013-07-02 23:45:00,
2013-07-02 16:50:00,98.7,50.7,29.67,SSE,156,34.5,34.5,20,0.00,OVC,,0.00,WeatherDisplay:10.37,2013-07-02 23:50:00,
2013-07-02 16:54:00,98.5,50.5,29.67,SE,137,34.5,34.5,20,0.00,OVC,,0.00,WeatherDisplay:10.37,2013-07-02 23:54:00,
2013-07-02 16:59:00,98.4,51.7,29.66,SSE,154,29.9,29.9,21,0.00,OVC,,0.00,WeatherDisplay:10.37,2013-07-02 23:59:00,
2013-07-02 17:04:00,97.6,51.1,29.66,SSE,160,33.4,33.4,21,0.00,OVC,,0.00,WeatherDisplay:10.37,2013-07-03 00:04:00,
2013-07-02 17:06:00,97.6,49.8,29.66,South,173,32.2,32.2,20,0.00,OVC,,0.00,WeatherDisplay:10.37,2013-07-03 00:06:00,
2013-07-02 17:11:00,97.4,49.6,29.66,SSE,154,31.1,31.1,20,0.00,OVC,,0.00,WeatherDisplay:10.37,2013-07-03 00:11:00,
2013-07-02 17:16:00,96.8,50.4,29.66,SSE,161,29.9,29.9,21,0.00,CLR,,0.00,WeatherDisplay:10.37,2013-07-03 00:16:00,
2013-07-02 17:21:00,97.2,49.4,29.66,SSE,162,31.1,31.1,20,0.00,OVC,,0.00,WeatherDisplay:10.37,2013-07-03 00:21:00,
2013-07-02 17:23:00,96.9,49.2,29.65,SSE,155,34.5,34.5,20,0.00,OVC,,0.00,WeatherDisplay:10.37,2013-07-03 00:23:00,
2013-07-02 17:25:00,97.0,49.3,29.66,South,171,29.0,35.0,20,0.00,CLR,,0.00,WeatherDisplay:10.37,2013-07-03 00:25:00,
2013-07-02 17:30:00,96.2,48.7,29.65,South,172,30.0,35.0,20,0.00,,,0.00,WeatherDisplay:10.37,2013-07-03 00:30:00,
2013-07-02 17:32:00,95.9,49.7,29.65,SSE,159,31.1,31.1,21,0.00,OVC,,0.00,WeatherDisplay:10.37,2013-07-03 00:32:00,
2013-07-02 17:33:00,95.7,49.5,29.65,SSE,165,32.2,32.2,21,0.00,OVC,,0.00,WeatherDisplay:10.37,2013-07-03 00:33:00,
2013-07-02 17:39:00,94.6,48.6,29.65,South,175,36.8,36.8,21,0.00,OVC,,0.00,WeatherDisplay:10.37,2013-07-03 00:39:00,
2013-07-02 17:44:00,94.7,48.7,29.65,SSE,167,27.6,27.6,21,0.00,OVC,,0.00,WeatherDisplay:10.37,2013-07-03 00:44:00,
2013-07-02 17:49:00,95.6,49.4,29.65,South,171,32.2,32.2,21,0.00,OVC,,0.00,WeatherDisplay:10.37,2013-07-03 00:49:00,
2013-07-02 17:54:00,95.8,49.6,29.65,SE,144,29.9,29.9,21,0.00,OVC,,0.00,WeatherDisplay:10.37,2013-07-03 00:54:00,
2013-07-02 17:59:00,95.3,50.4,29.65,South,189,37.0,37.0,22,0.00,OVC,,0.00,WeatherDisplay:10.37,2013-07-03 00:59:00,
2013-07-02 18:00:00,95.3,50.4,29.65,SSE,156,37.0,37.0,22,0.00,OVC,,0.00,WeatherDisplay:10.37,2013-07-03 01:00:00,
2013-07-02 18:05:00,95.8,50.9,29.65,SSE,165,34.5,34.5,22,0.00,OVC,,0.00,WeatherDisplay:10.37,2013-07-03 01:05:00,
2013-07-02 18:10:00,96.1,51.1,29.66,SSE,167,25.0,32.0,22,0.00,CLR,,0.00,WeatherDisplay:10.37,2013-07-03 01:10:00,
2013-07-02 18:15:00,96.6,50.3,29.66,South,173,25.0,35.0,21,0.00,CLR,,0.00,WeatherDisplay:10.37,2013-07-03 01:15:00,
2013-07-02 18:20:00,98.0,48.7,29.65,SSW,198,21.0,24.0,19,0.00,CLR,,0.00,WeatherDisplay:10.37,2013-07-03 01:20:00,
2013-07-02 18:25:00,99.4,48.4,29.65,SW,234,25.3,25.3,18,0.00,OVC,,0.00,WeatherDisplay:10.37,2013-07-03 01:25:00,
2013-07-02 18:29:00,99.3,49.8,29.65,WSW,246,24.0,24.0,19,0.00,OVC,,0.00,WeatherDisplay:10.37,2013-07-03 01:29:00,
2013-07-02 18:34:00,99.0,49.5,29.65,SW,222,23.0,23.0,19,0.00,OVC,,0.00,WeatherDisplay:10.37,2013-07-03 01:34:00,
2013-07-02 18:39:00,98.7,49.3,29.65,WSW,250,31.1,31.1,19,0.00,OVC,,0.00,WeatherDisplay:10.37,2013-07-03 01:39:00,
2013-07-02 18:44:00,98.6,49.2,29.65,WSW,256,27.0,27.0,19,0.00,OVC,,0.00,WeatherDisplay:10.37,2013-07-03 01:44:00,
2013-07-02 18:49:00,98.2,48.9,29.65,WSW,244,28.0,28.0,19,0.00,OVC,,0.00,WeatherDisplay:10.37,2013-07-03 01:49:00,
2013-07-02 18:50:00,98.2,48.9,29.65,WSW,247,24.0,28.0,19,0.00,CLR,,0.00,WeatherDisplay:10.37,2013-07-03 01:50:00,
2013-07-02 18:55:00,98.1,50.2,29.65,WSW,238,27.6,27.6,20,0.00,OVC,,0.00,WeatherDisplay:10.37,2013-07-03 01:55:00,
2013-07-02 19:00:00,98.1,50.2,29.65,WSW,244,23.0,23.0,20,0.00,OVC,,0.00,WeatherDisplay:10.37,2013-07-03 02:00:00,
2013-07-02 19:05:00,98.0,50.1,29.65,SW,234,26.5,26.5,20,0.00,OVC,,0.00,WeatherDisplay:10.37,2013-07-03 02:05:00,
2013-07-02 19:10:00,97.8,49.9,29.66,SW,230,20.7,20.7,20,0.00,OVC,,0.00,WeatherDisplay:10.37,2013-07-03 02:10:00,
2013-07-02 19:15:00,97.5,49.7,29.66,WSW,242,20.7,20.7,20,0.00,OVC,,0.00,WeatherDisplay:10.37,2013-07-03 02:15:00,
2013-07-02 19:20:00,97.4,49.6,29.65,WSW,244,19.6,19.6,20,0.00,OVC,,0.00,WeatherDisplay:10.37,2013-07-03 02:20:00,
2013-07-02 19:25:00,97.2,49.4,29.65,WSW,240,17.3,17.3,20,0.00,CLR,,0.00,WeatherDisplay:10.37,2013-07-03 02:25:00,
2013-07-02 19:31:00,97.0,49.3,29.65,SW,234,20.7,20.7,20,0.00,OVC,,0.00,WeatherDisplay:10.37,2013-07-03 02:31:00,
2013-07-02 19:33:00,96.8,49.1,29.65,WSW,239,18.4,18.4,20,0.00,OVC,,0.00,WeatherDisplay:10.37,2013-07-03 02:33:00,
2013-07-02 19:38:00,96.5,48.9,29.65,WSW,237,21.9,21.9,20,0.00,OVC,,0.00,WeatherDisplay:10.37,2013-07-03 02:38:00,
2013-07-02 19:43:00,95.8,49.6,29.65,SW,230,20.0,20.0,21,0.00,OVC,,0.00,WeatherDisplay:10.37,2013-07-03 02:43:00,
2013-07-02 19:46:00,95.8,49.6,29.65,SW,236,19.0,19.0,21,0.00,OVC,,0.00,WeatherDisplay:10.37,2013-07-03 02:46:00,
2013-07-02 19:51:00,95.6,49.4,29.65,SW,236,18.4,18.4,21,0.00,OVC,,0.00,WeatherDisplay:10.37,2013-07-03 02:51:00,
2013-07-02 19:56:00,95.3,49.2,29.65,WSW,240,23.0,23.0,21,0.00,OVC,,0.00,WeatherDisplay:10.37,2013-07-03 02:56:00,
2013-07-02 20:02:00,94.9,48.9,29.66,WSW,244,19.6,19.6,21,0.00,OVC,,0.00,WeatherDisplay:10.37,2013-07-03 03:02:00,
2013-07-02 20:07:00,94.6,48.6,29.66,WSW,247,19.6,19.6,21,0.00,CLR,,0.00,WeatherDisplay:10.37,2013-07-03 03:07:00,
2013-07-02 20:12:00,94.3,49.6,29.66,WSW,252,19.6,19.6,22,0.00,CLR,,0.00,WeatherDisplay:10.37,2013-07-03 03:12:00,
2013-07-02 20:18:00,94.3,49.6,29.66,West,264,19.6,19.6,22,0.00,CLR,,0.00,WeatherDisplay:10.37,2013-07-03 03:18:00,
2013-07-02 20:20:00,94.2,49.5,29.67,WSW,239,16.1,16.1,22,0.00,CLR,,0.00,WeatherDisplay:10.37,2013-07-03 03:20:00,
2013-07-02 20:25:00,93.8,49.2,29.67,SW,216,17.3,17.3,22,0.00,CLR,,0.00,WeatherDisplay:10.37,2013-07-03 03:25:00,
2013-07-02 20:30:00,92.6,50.5,29.67,South,184,13.8,13.8,24,0.00,CLR,,0.00,WeatherDisplay:10.37,2013-07-03 03:30:00,
2013-07-02 20:35:00,92.4,50.3,29.67,South,188,8.0,13.0,24,0.00,CLR,,0.00,WeatherDisplay:10.37,2013-07-03 03:35:00,
2013-07-02 20:39:00,91.9,51.1,29.67,South,188,12.7,12.7,25,0.00,CLR,,0.00,WeatherDisplay:10.37,2013-07-03 03:39:00,
2013-07-02 20:44:00,91.6,50.8,29.67,South,184,18.4,18.4,25,0.00,CLR,,0.00,WeatherDisplay:10.37,2013-07-03 03:44:00,
2013-07-02 20:49:00,92.1,51.2,29.68,SSW,192,19.6,19.6,25,0.00,CLR,,0.00,WeatherDisplay:10.37,2013-07-03 03:49:00,
2013-07-02 20:51:00,92.0,50.0,29.68,SSW,192,15.0,15.0,24,0.00,CLR,,0.00,WeatherDisplay:10.37,2013-07-03 03:51:00,
2013-07-02 20:56:00,91.7,50.9,29.67,South,184,14.0,14.0,25,0.00,CLR,,0.00,WeatherDisplay:10.37,2013-07-03 03:56:00,
2013-07-02 21:00:00,91.6,50.8,29.67,South,188,9.0,15.0,25,0.00,CLR,,0.00,WeatherDisplay:10.37,2013-07-03 04:00:00,
2013-07-02 21:01:00,91.4,49.5,29.67,South,187,10.4,10.4,24,0.00,CLR,,0.00,WeatherDisplay:10.37,2013-07-03 04:01:00,
2013-07-02 21:02:00,91.3,50.5,29.67,SSW,195,9.2,9.2,25,0.00,OVC,,0.00,WeatherDisplay:10.37,2013-07-03 04:02:00,
2013-07-02 21:03:00,91.3,50.5,29.67,South,190,11.0,11.0,25,0.00,OVC,,0.00,WeatherDisplay:10.37,2013-07-03 04:03:00,
2013-07-02 21:04:00,91.3,50.5,29.67,SSE,163,11.5,11.5,25,0.00,OVC,,0.00,WeatherDisplay:10.37,2013-07-03 04:04:00,
2013-07-02 21:10:00,91.0,49.2,29.67,West,273,11.5,11.5,24,0.00,OVC,,0.00,WeatherDisplay:10.37,2013-07-03 04:10:00,
2013-07-02 21:11:00,91.5,49.6,29.68,WSW,250,11.5,11.5,24,0.00,OVC,,0.00,WeatherDisplay:10.37,2013-07-03 04:11:00,
2013-07-02 21:16:00,92.2,50.2,29.68,SSW,205,11.5,11.5,24,0.00,OVC,,0.00,WeatherDisplay:10.37,2013-07-03 04:16:00,
2013-07-02 21:21:00,92.5,49.3,29.68,SSE,158,2.3,0.0,23,0.00,OVC,,0.00,WeatherDisplay:10.37,2013-07-03 04:21:00,
2013-07-02 21:26:00,91.8,49.9,29.68,SSE,155,8.0,8.0,24,0.00,OVC,,0.00,WeatherDisplay:10.37,2013-07-03 04:26:00,
2013-07-02 21:31:00,91.0,50.3,29.68,SSE,148,10.4,10.4,25,0.00,OVC,,0.00,WeatherDisplay:10.37,2013-07-03 04:31:00,
2013-07-02 21:32:00,90.6,50.0,29.68,SSE,147,10.4,10.4,25,0.00,OVC,,0.00,WeatherDisplay:10.37,2013-07-03 04:32:00,
2013-07-02 21:37:00,89.7,50.3,29.68,ESE,118,8.1,8.1,26,0.00,OVC,,0.00,WeatherDisplay:10.37,2013-07-03 04:37:00,
2013-07-02 21:42:00,88.8,50.5,29.68,East,100,9.0,9.0,27,0.00,OVC,,0.00,WeatherDisplay:10.37,2013-07-03 04:42:00,
2013-07-02 21:45:00,88.8,49.5,29.68,ESE,102,9.0,12.0,26,0.00,CLR,,0.00,WeatherDisplay:10.37,2013-07-03 04:45:00,
2013-07-02 21:47:00,89.5,50.1,29.68,ESE,109,11.0,11.0,26,0.00,OVC,,0.00,WeatherDisplay:10.37,2013-07-03 04:47:00,
2013-07-02 21:52:00,90.3,49.7,29.69,ENE,66,9.2,9.2,25,0.00,OVC,,0.00,WeatherDisplay:10.37,2013-07-03 04:52:00,
2013-07-02 21:54:00,89.9,50.4,29.69,East,84,10.4,10.4,26,0.00,OVC,,0.00,WeatherDisplay:10.37,2013-07-03 04:54:00,
2013-07-02 21:59:00,89.9,49.4,29.69,SSE,147,11.5,11.5,25,0.00,OVC,,0.00,WeatherDisplay:10.37,2013-07-03 04:59:00,
2013-07-02 22:05:00,91.5,49.6,29.68,ESE,109,11.5,11.5,24,0.00,OVC,,0.00,WeatherDisplay:10.37,2013-07-03 05:05:00,
2013-07-02 22:08:00,92.5,49.3,29.69,ESE,109,11.5,11.5,23,0.00,OVC,,0.00,WeatherDisplay:10.37,2013-07-03 05:08:00,
2013-07-02 22:13:00,89.7,49.2,29.70,ESE,117,10.4,10.4,25,0.00,OVC,,0.00,WeatherDisplay:10.37,2013-07-03 05:13:00,
2013-07-02 22:18:00,89.8,49.3,29.69,SSE,159,4.6,4.6,25,0.00,OVC,,0.00,WeatherDisplay:10.37,2013-07-03 05:18:00,
2013-07-02 22:20:00,89.9,49.3,29.69,SE,143,5.0,8.0,25,0.00,CLR,,0.00,WeatherDisplay:10.37,2013-07-03 05:20:00,
2013-07-02 22:25:00,90.2,49.6,29.69,SE,137,6.0,8.0,25,0.00,CLR,,0.00,WeatherDisplay:10.37,2013-07-03 05:25:00,
2013-07-02 22:30:00,89.8,49.3,29.69,SE,126,9.0,14.0,25,0.00,CLR,,0.00,WeatherDisplay:10.37,2013-07-03 05:30:00,
2013-07-02 22:35:00,91.0,49.2,29.69,SE,129,1.0,12.0,24,0.00,CLR,,0.00,WeatherDisplay:10.37,2013-07-03 05:35:00,
2013-07-02 22:40:00,90.2,48.5,29.69,East,95,10.4,10.4,24,0.00,OVC,,0.00,WeatherDisplay:10.37,2013-07-03 05:40:00,
2013-07-02 22:46:00,90.3,48.6,29.68,East,97,11.5,11.5,24,0.00,OVC,,0.00,WeatherDisplay:10.37,2013-07-03 05:46:00,
2013-07-02 22:51:00,89.9,48.3,29.68,ESE,123,10.0,10.0,24,0.00,OVC,,0.00,WeatherDisplay:10.37,2013-07-03 05:51:00,
2013-07-02 22:54:00,89.8,48.2,29.68,ESE,119,11.5,11.5,24,0.00,OVC,,0.00,WeatherDisplay:10.37,2013-07-03 05:54:00,
2013-07-02 22:58:00,89.8,48.2,29.68,SE,128,6.9,6.9,24,0.00,OVC,,0.00,WeatherDisplay:10.37,2013-07-03 05:58:00,
2013-07-02 23:02:00,88.7,48.4,29.69,West,269,6.0,6.0,25,0.00,CLR,,0.00,WeatherDisplay:10.37,2013-07-03 06:02:00,
2013-07-02 23:07:00,87.5,48.4,29.68,West,279,9.0,9.0,26,0.00,CLR,,0.00,WeatherDisplay:10.37,2013-07-03 06:07:00,
2013-07-02 23:13:00,87.0,48.0,29.69,WNW,282,5.0,5.0,26,0.00,CLR,,0.00,WeatherDisplay:10.37,2013-07-03 06:13:00,
2013-07-02 23:17:00,86.8,47.8,29.69,WNW,282,3.5,3.5,26,0.00,CLR,,0.00,WeatherDisplay:10.37,2013-07-03 06:17:00,
2013-07-02 23:22:00,86.4,47.5,29.69,NW,306,4.0,4.0,26,0.00,CLR,,0.00,WeatherDisplay:10.37,2013-07-03 06:22:00,
2013-07-02 23:26:00,86.2,48.3,29.69,NW,314,6.9,6.9,27,0.00,CLR,,0.00,WeatherDisplay:10.37,2013-07-03 06:26:00,
2013-07-02 23:27:00,86.4,48.5,29.69,NW,314,5.8,5.8,27,0.00,CLR,,0.00,WeatherDisplay:10.37,2013-07-03 06:27:00,
2013-07-02 23:32:00,86.5,47.5,29.68,SSE,147,5.0,5.0,26,0.00,CLR,,0.00,WeatherDisplay:10.37,2013-07-03 06:32:00,
2013-07-02 23:37:00,85.7,47.9,29.68,ESE,102,7.0,7.0,27,0.00,CLR,,0.00,WeatherDisplay:10.37,2013-07-03 06:37:00,
2013-07-02 23:42:00,86.1,48.2,29.68,ENE,68,6.9,6.9,27,0.00,CLR,,0.00,WeatherDisplay:10.37,2013-07-03 06:42:00,
2013-07-02 23:45:00,86.7,47.7,29.68,ENE,69,6.9,6.9,26,0.00,CLR,,0.00,WeatherDisplay:10.37,2013-07-03 06:45:00,
2013-07-02 23:50:00,85.9,48.0,29.68,East,96,5.0,5.0,27,0.00,CLR,,0.00,WeatherDisplay:10.37,2013-07-03 06:50:00,
2013-07-02 23:55:00,84.7,48.9,29.68,South,175,3.5,3.5,29,0.00,CLR,,0.00,WeatherDisplay:10.37,2013-07-03 06:55:00,
2013-07-02 23:56:00,84.6,48.8,29.68,South,169,3.5,3.5,29,0.00,CLR,,0.00,WeatherDisplay:10.37,2013-07-03 06:56:00,